Marvel, CO (81329)

7:50 PM MDT on April 29, 2017 (GMT -0600)
Mormon Reservoir | | Change Station

Elev 7024 ft 37.18 °N, 108.15 °W | Updated 4 seconds ago

Mostly Cloudy
Mostly Cloudy
37.7 °F
Feels Like 38 °F
N
3.0
Wind Variable Wind from NW
Gusts 21.0 mph

Today
High -- | Low -- °F
--% Chance of Precip.
Yesterday
High -- | Low -- °F
Precip. -- in
Pressure 30.01 in
Visibility 10.0 miles
Clouds Scattered Clouds 2400 ft
Mostly Cloudy 7500 ft
Mostly Cloudy 10000 ft
Windchill 38 °F
Dew Point 24 °F
Humidity 57%
Rainfall 0.05 in
Snow Depth Not available.
6:19 AM 8:00 PM
Waxing Crescent, 18% visible
METAR KDRO 300053Z AUTO 14008KT 10SM SCT024 BKN075 BKN100 03/01 A2996 RMK AO2 RAB2356E09B49E51UPB43E49SNB09E43 SLP162 P0002 T00280006
Pressure 30.01 in
Visibility 10.0 miles
Clouds Scattered Clouds 2400 ft
Mostly Cloudy 7500 ft
Mostly Cloudy 10000 ft
Windchill 38 °F
Dew Point 24 °F
Humidity 57%
Rainfall 0.05 in
Snow Depth Not available.
6:19 AM 8:00 PM
Waxing Crescent, 18% visible
METAR KDRO 300053Z AUTO 14008KT 10SM SCT024 BKN075 BKN100 03/01 A2996 RMK AO2 RAB2356E09B49E51UPB43E49SNB09E43 SLP162 P0002 T00280006

Get Severe Weather Alerts

Thanks for signing up!

Be on the lookout for a verification email in your inbox.

You'll start receiving the daily forecast at 8 AM.

×

10-Day Weather Forecast

Almanac

Astronomy

Apr. 29, 2017 Rise Set
Actual Time
Civil Twilight
Nautical Twilight
Astronomical Twilight
Moon
Length of Visible Light
Length of Day
Tomorrow will be .
, % of the Moon is Illuminated

Today's Extremes

State Highs State Lows

Community

WunderPhotos

WunderBlog® & News

Nearby

Air Quality

  Air Quality AQ Index Pollutant
Not available.

Snow Depth

Station Depth Elevation

Earthquake Activity

City Distance Mag. Time & Date
Minimum magnitude displayed is 2.5.

Coastal Water Temperatures

Place Temperature

Stations

Nearby Weather Stations

Station Location Temp. Windchill Dew Point Humidity Wind Precip. Elev Updated Type
                   

Watches & Warnings

There are currently no watches in effect.